createdAt,value
2022-11-08T00:00:06.360Z,97291.16
2022-11-08T00:05:11.867Z,97284.97
2022-11-08T00:10:15.132Z,97268.50
2022-11-08T00:15:18.334Z,97292.44
2022-11-08T00:20:21.585Z,97286.19
2022-11-08T00:25:25.389Z,97282.94
2022-11-08T00:30:28.804Z,97312.56
2022-11-08T00:35:31.980Z,97318.81
2022-11-08T00:40:41.443Z,97308.31
2022-11-08T00:45:45.185Z,97308.31
2022-11-08T00:50:48.666Z,97315.50
2022-11-08T00:55:59.570Z,97318.22
2022-11-08T01:01:09.837Z,97319.97
2022-11-08T01:06:15.095Z,97329.81
2022-11-08T01:11:24.094Z,97330.81
2022-11-08T01:16:31.422Z,97343.38
2022-11-08T01:21:34.954Z,97328.63
2022-11-08T01:26:38.171Z,97329.09
2022-11-08T01:31:41.592Z,97325.84
2022-11-08T01:36:44.884Z,97334.91
2022-11-08T01:41:47.994Z,97331.53
2022-11-08T01:46:51.275Z,97322.75
2022-11-08T01:52:02.309Z,97327.16
2022-11-08T01:57:11.282Z,97311.84
2022-11-08T02:02:15.854Z,97273.16
2022-11-08T02:07:19.343Z,97268.84
2022-11-08T02:12:22.632Z,97245.44
2022-11-08T02:17:25.700Z,97224.22
2022-11-08T02:22:34.792Z,97225.25
2022-11-08T02:27:38.574Z,97192.41
2022-11-08T02:32:42.778Z,97220.34
2022-11-08T02:37:47.013Z,97228.44
2022-11-08T02:42:52.192Z,97246.97
2022-11-08T02:47:55.961Z,97243.16
2022-11-08T02:52:59.437Z,97259.00
2022-11-08T02:58:03.531Z,97256.53
2022-11-08T03:03:06.637Z,97258.13
2022-11-08T03:08:10.582Z,97272.88
2022-11-08T03:13:14.275Z,97291.91
2022-11-08T03:18:17.807Z,97309.06
2022-11-08T03:23:21.085Z,97314.16
2022-11-08T03:28:24.550Z,97319.81
2022-11-08T03:33:28.417Z,97326.41
2022-11-08T03:38:31.820Z,97332.94
2022-11-08T03:43:34.874Z,97342.91
2022-11-08T03:48:38.042Z,97353.19
2022-11-08T03:53:41.108Z,97344.63
2022-11-08T03:58:44.316Z,97345.16
2022-11-08T04:03:47.799Z,97342.53
2022-11-08T04:08:52.483Z,97350.66
2022-11-08T04:13:55.948Z,97343.06
2022-11-08T04:19:00.601Z,97357.25
2022-11-08T04:24:04.220Z,97365.81
2022-11-08T04:29:08.887Z,97374.94
2022-11-08T04:34:12.570Z,97387.34
2022-11-08T04:39:16.032Z,97387.34
2022-11-08T04:44:19.703Z,97399.25
2022-11-08T04:49:22.920Z,97399.25
2022-11-08T04:54:26.023Z,97397.94
2022-11-08T04:59:29.226Z,97401.81
2022-11-08T05:04:32.325Z,97417.28
2022-11-08T05:09:35.561Z,97411.19
2022-11-08T05:14:38.980Z,97415.34
2022-11-08T05:19:41.868Z,97431.63
2022-11-08T05:24:44.891Z,97433.59
2022-11-08T05:29:48.325Z,97422.19
2022-11-08T05:34:51.820Z,97427.44
2022-11-08T05:39:55.330Z,97437.84
2022-11-08T05:44:58.804Z,97446.63
2022-11-08T05:50:02.258Z,97453.25
2022-11-08T05:55:07.008Z,97461.19
2022-11-08T06:00:12.541Z,97463.72
2022-11-08T06:05:16.691Z,97463.88
2022-11-08T06:10:20.677Z,97467.19
2022-11-08T06:15:24.136Z,97466.41
2022-11-08T06:20:27.458Z,97467.75
2022-11-08T06:25:30.724Z,97475.63
2022-11-08T06:30:33.745Z,97482.34
2022-11-08T06:35:37.697Z,97469.31
2022-11-08T06:40:41.200Z,97478.56
2022-11-08T06:45:46.647Z,97476.47
2022-11-08T06:50:50.103Z,97472.50
2022-11-08T06:55:53.798Z,97478.34
2022-11-08T07:00:57.519Z,97488.47
2022-11-08T07:06:05.610Z,97489.72
2022-11-08T07:11:09.285Z,97483.81
2022-11-08T07:16:12.566Z,97496.63
2022-11-08T07:21:16.675Z,97490.19
2022-11-08T07:26:20.004Z,97483.50
2022-11-08T07:31:23.221Z,97487.88
2022-11-08T07:36:26.500Z,97483.13
2022-11-08T07:41:32.900Z,97480.41
2022-11-08T07:46:39.554Z,97479.59
2022-11-08T07:51:42.836Z,97469.88
2022-11-08T07:56:45.666Z,97473.66
2022-11-08T08:01:48.763Z,97482.84
2022-11-08T08:06:52.330Z,97469.97
2022-11-08T08:11:55.798Z,97475.50
2022-11-08T08:16:59.684Z,97470.50
2022-11-08T08:22:03.187Z,97483.25
2022-11-08T08:27:06.377Z,97482.44
2022-11-08T08:32:09.279Z,97469.72
2022-11-08T08:37:12.770Z,97459.69
2022-11-08T08:42:16.345Z,97454.38
2022-11-08T08:47:19.819Z,97485.66
2022-11-08T08:52:23.593Z,97498.63
2022-11-08T08:57:26.939Z,97493.34
2022-11-08T09:02:30.044Z,97489.13
2022-11-08T09:07:33.258Z,97493.34
2022-11-08T09:12:37.253Z,97503.78
2022-11-08T09:17:41.013Z,97481.00
2022-11-08T09:22:44.745Z,97464.03
2022-11-08T09:27:48.141Z,97454.66
2022-11-08T09:33:01.748Z,97456.59
2022-11-08T09:38:05.855Z,97451.19
2022-11-08T09:43:47.990Z,97458.88
2022-11-08T09:48:52.371Z,97445.66
2022-11-08T09:53:59.215Z,97444.09
2022-11-08T09:59:11.554Z,97449.19
2022-11-08T10:04:24.260Z,97436.25
2022-11-08T10:09:48.289Z,97423.84
2022-11-08T10:15:38.354Z,97420.03
2022-11-08T10:21:06.359Z,97425.34
2022-11-08T10:26:25.706Z,97430.16
2022-11-08T10:31:31.957Z,97432.63
2022-11-08T10:36:42.651Z,97429.13
2022-11-08T10:42:22.330Z,97419.66
2022-11-08T10:47:29.843Z,97417.78
2022-11-08T10:52:45.634Z,97406.66
2022-11-08T10:57:48.974Z,97416.31
2022-11-08T11:03:20.552Z,97416.88
2022-11-08T11:08:24.376Z,97414.13
2022-11-08T11:13:29.122Z,97417.09
2022-11-08T11:18:34.762Z,97422.84
2022-11-08T11:23:50.443Z,97430.16
2022-11-08T11:29:06.005Z,97430.50
2022-11-08T11:34:18.308Z,97433.13
2022-11-08T11:39:36.875Z,97436.13
2022-11-08T11:45:00.877Z,97445.66
2022-11-08T11:50:16.081Z,97439.44
2022-11-08T11:55:24.870Z,97445.41
2022-11-08T12:00:28.306Z,97445.41
2022-11-08T12:05:56.837Z,97435.25
2022-11-08T12:11:32.093Z,97447.50
2022-11-08T12:17:00.116Z,97450.47
2022-11-08T12:22:51.348Z,97454.81
2022-11-08T12:28:10.325Z,97460.78
2022-11-08T12:33:22.443Z,97460.25
2022-11-08T12:38:37.177Z,97449.44
2022-11-08T12:44:05.269Z,97457.03
2022-11-08T12:49:44.161Z,97462.44
2022-11-08T12:55:03.350Z,97458.66
2022-11-08T13:00:15.077Z,97468.16
2022-11-08T13:05:27.372Z,97475.19
2022-11-08T13:10:37.037Z,97476.28
2022-11-08T13:16:10.395Z,97474.63
2022-11-08T13:21:29.052Z,97475.47
2022-11-08T13:26:37.285Z,97478.19
2022-11-08T13:31:54.591Z,97476.28
2022-11-08T13:37:30.394Z,97473.28
2022-11-08T13:42:33.987Z,97483.88
2022-11-08T13:47:37.300Z,97492.50
2022-11-08T13:52:47.157Z,97491.97
2022-11-08T13:58:01.585Z,97487.06
2022-11-08T14:03:33.551Z,97498.66
2022-11-08T14:08:48.928Z,97500.25
2022-11-08T14:14:03.995Z,97498.38
2022-11-08T14:19:23.458Z,97503.47
2022-11-08T14:24:35.784Z,97502.91
2022-11-08T14:29:39.237Z,97506.94
2022-11-08T14:34:43.351Z,97511.78
2022-11-08T14:39:47.761Z,97517.72
2022-11-08T14:44:53.745Z,97521.75
2022-11-08T14:49:58.789Z,97517.38
2022-11-08T14:55:07.884Z,97518.44
2022-11-08T15:00:15.987Z,97512.16
2022-11-08T15:05:48.128Z,97516.97
2022-11-08T15:11:07.213Z,97525.56
2022-11-08T15:16:11.631Z,97529.56
2022-11-08T15:21:30.334Z,97541.97
2022-11-08T15:26:35.789Z,97549.53
2022-11-08T15:31:43.507Z,97551.94
2022-11-08T15:36:48.187Z,97561.63
2022-11-08T15:42:27.146Z,97562.94
2022-11-08T15:47:42.230Z,97571.03
2022-11-08T15:52:47.501Z,97581.28
2022-11-08T15:57:51.184Z,97587.75
2022-11-08T16:02:55.225Z,97581.81
2022-11-08T16:08:00.983Z,97588.00
2022-11-08T16:13:05.510Z,97596.41
2022-11-08T16:18:12.535Z,97598.53
2022-11-08T16:23:15.865Z,97601.25
2022-11-08T16:28:29.871Z,97600.69
2022-11-08T16:33:35.314Z,97590.41
2022-11-08T16:38:38.719Z,97606.59
2022-11-08T16:43:41.975Z,97601.19
2022-11-08T16:48:49.907Z,97600.69
2022-11-08T16:53:54.414Z,97596.59
2022-11-08T16:58:57.731Z,97608.44
2022-11-08T17:04:03.057Z,97623.53
2022-11-08T17:09:15.979Z,97627.22
2022-11-08T17:14:19.532Z,97615.31
2022-11-08T17:19:22.685Z,97625.56
2022-11-08T17:24:25.512Z,97623.88
2022-11-08T17:29:28.697Z,97630.84
2022-11-08T17:34:33.730Z,97631.34
2022-11-08T17:39:37.112Z,97637.56
2022-11-08T17:44:40.485Z,97635.97
2022-11-08T17:49:44.249Z,97637.66
2022-11-08T17:54:52.665Z,97636.41
2022-11-08T17:59:56.543Z,97641.06
2022-11-08T18:05:00.146Z,97634.66
2022-11-08T18:10:03.747Z,97634.44
2022-11-08T18:15:09.015Z,97633.69
2022-11-08T18:20:12.673Z,97632.91
2022-11-08T18:25:16.490Z,97632.44
2022-11-08T18:30:19.780Z,97640.06
2022-11-08T18:35:23.644Z,97631.19
2022-11-08T18:40:27.295Z,97625.56
2022-11-08T18:45:31.084Z,97630.78
2022-11-08T18:50:35.672Z,97636.50
2022-11-08T18:55:39.663Z,97634.59
2022-11-08T19:00:43.365Z,97634.84
2022-11-08T19:05:46.990Z,97632.13
2022-11-08T19:11:00.637Z,97629.09
2022-11-08T19:16:06.094Z,97640.09
2022-11-08T19:21:21.196Z,97640.31
2022-11-08T19:26:26.465Z,97637.84
2022-11-08T19:31:29.778Z,97638.53
2022-11-08T19:36:32.818Z,97638.47
2022-11-08T19:41:37.006Z,97642.75
2022-11-08T19:46:40.567Z,97634.34
2022-11-08T19:51:44.221Z,97635.13
2022-11-08T19:57:04.545Z,97639.38
2022-11-08T20:02:09.490Z,97642.59
2022-11-08T20:07:12.940Z,97641.22
2022-11-08T20:12:16.262Z,97648.22
2022-11-08T20:17:19.652Z,97645.75
2022-11-08T20:22:22.770Z,97642.16
2022-11-08T20:27:25.969Z,97651.91
2022-11-08T20:32:29.550Z,97640.28
2022-11-08T20:37:33.097Z,97641.63
2022-11-08T20:42:36.437Z,97637.31
2022-11-08T20:47:42.532Z,97639.44
2022-11-08T20:52:46.796Z,97638.06
2022-11-08T20:57:50.307Z,97642.09
2022-11-08T21:02:53.812Z,97641.28
2022-11-08T21:08:03.226Z,97645.03
2022-11-08T21:13:20.818Z,97643.16
2022-11-08T21:18:25.781Z,97639.38
2022-11-08T21:23:29.086Z,97632.38
2022-11-08T21:28:33.848Z,97626.16
2022-11-08T21:33:38.016Z,97622.41
2022-11-08T21:38:41.854Z,97634.81
2022-11-08T21:43:45.618Z,97629.09
2022-11-08T21:48:57.100Z,97632.38
2022-11-08T21:54:00.206Z,97622.63
2022-11-08T21:59:03.551Z,97622.06
2022-11-08T22:04:06.907Z,97622.88
2022-11-08T22:09:10.647Z,97617.81
2022-11-08T22:14:14.661Z,97618.06
2022-11-08T22:19:18.099Z,97615.66
2022-11-08T22:24:21.964Z,97627.25
2022-11-08T22:29:25.350Z,97621.59
2022-11-08T22:34:28.917Z,97624.22
2022-11-08T22:39:32.382Z,97618.81
2022-11-08T22:44:35.693Z,97621.53
2022-11-08T22:49:44.774Z,97616.38
2022-11-08T22:54:48.303Z,97609.91
2022-11-08T22:59:51.774Z,97614.72
2022-11-08T23:04:55.170Z,97612.28
2022-11-08T23:09:58.527Z,97615.00
2022-11-08T23:15:02.152Z,97607.47
2022-11-08T23:20:06.783Z,97609.34
2022-11-08T23:25:10.268Z,97598.31
2022-11-08T23:30:15.422Z,97605.09
2022-11-08T23:35:20.808Z,97606.44
2022-11-08T23:40:24.302Z,97605.69
2022-11-08T23:45:27.644Z,97604.63
2022-11-08T23:50:30.894Z,97598.41
2022-11-08T23:55:34.478Z,97592.22
